Portada
METAR-TAF:

METAR-TAF

Aeroports :

Resistencia, Argentina

latitud: 27-27S, longitud: 059-03W, altitud: 53 m

Observació

L'informe es va fer fa 1 hora i 5 minuts, a les 07:00 UTC
Vent 4 kt del Sud/Sud-Est
Temperatura 21°C
Humitat 100%
Pressió 1009 hPa
Visibilitat 10 km o més
Escasses núvols a una alçada de 1100 ft

METAR: SARE 230700Z 15004KT 9999 FEW011 21/21 Q1009

Hora: 05:05 (08:05 UTC)

Pronòstic

L'informe es va fer fa 3 hores i 5 minuts, a les 05:00 UTC
Pronòstic vàlid del 23 a les 06 UTC al 24 a les 06 UTC
Vent 5 kt del Sud/Sud-Est
Visibilitat 10 km o més
sense núvols per sota de 1500 mi sense presència de cumulonimbus.

TAF: SARE 230500Z 2306/2406 15005KT CAVOK TX32/2319Z TN19/2309Z

Observacions i pronòstics meteorològics de més de 4000 aeroports (METAR i TAF).

Les estacions disponibles són els punts grocs i vermells al mapa.

Posi el ratolí al punt desitjat per veure el nom de l'estació.

Feu clic per veure les observacions i els pronòstics meteorològics.

Per canviar el mapa: feu clic els botons verds amb una creu de color negre per apropar; al botó verd amb un guió per allunyar la imatge; o en les fletxes verdes per a mapes adjacents.


METAR-TAF: